sensor_id;sensor_type;location;lat;lon;timestamp;temperature;humidity
32097;DHT22;18610;49.916;8.284;2023-02-26T00:01:50;1.20;99.90
32097;DHT22;18610;49.916;8.284;2023-02-26T00:04:26;1.20;99.90
32097;DHT22;18610;49.916;8.284;2023-02-26T00:06:54;1.20;99.90
32097;DHT22;18610;49.916;8.284;2023-02-26T00:09:22;1.20;99.90
32097;DHT22;18610;49.916;8.284;2023-02-26T00:11:48;1.30;99.90
32097;DHT22;18610;49.916;8.284;2023-02-26T00:14:15;1.30;99.90
32097;DHT22;18610;49.916;8.284;2023-02-26T00:16:46;1.40;99.90
32097;DHT22;18610;49.916;8.284;2023-02-26T00:19:16;1.40;99.90
32097;DHT22;18610;49.916;8.284;2023-02-26T00:21:43;1.40;99.90
32097;DHT22;18610;49.916;8.284;2023-02-26T00:24:11;1.40;99.90
32097;DHT22;18610;49.916;8.284;2023-02-26T00:26:38;1.50;99.90
32097;DHT22;18610;49.916;8.284;2023-02-26T00:29:05;1.50;99.90
32097;DHT22;18610;49.916;8.284;2023-02-26T00:31:32;1.50;99.90
32097;DHT22;18610;49.916;8.284;2023-02-26T00:34:00;1.50;99.90
32097;DHT22;18610;49.916;8.284;2023-02-26T00:36:35;1.50;99.90
32097;DHT22;18610;49.916;8.284;2023-02-26T00:39:18;1.50;99.90
32097;DHT22;18610;49.916;8.284;2023-02-26T00:41:48;1.50;99.90
32097;DHT22;18610;49.916;8.284;2023-02-26T00:44:15;1.60;99.90
32097;DHT22;18610;49.916;8.284;2023-02-26T00:46:46;1.50;99.90
32097;DHT22;18610;49.916;8.284;2023-02-26T00:49:21;1.50;99.90
32097;DHT22;18610;49.916;8.284;2023-02-26T00:51:51;1.50;99.90
32097;DHT22;18610;49.916;8.284;2023-02-26T00:54:22;1.60;99.90
32097;DHT22;18610;49.916;8.284;2023-02-26T00:56:50;1.60;99.90
32097;DHT22;18610;49.916;8.284;2023-02-26T00:59:18;1.60;99.90
32097;DHT22;18610;49.916;8.284;2023-02-26T01:01:44;1.60;99.90
32097;DHT22;18610;49.916;8.284;2023-02-26T01:04:13;1.60;99.90
32097;DHT22;18610;49.916;8.284;2023-02-26T01:06:42;1.60;99.90
32097;DHT22;18610;49.916;8.284;2023-02-26T01:09:16;1.50;99.90
32097;DHT22;18610;49.916;8.284;2023-02-26T01:11:49;1.60;99.90
32097;DHT22;18610;49.916;8.284;2023-02-26T01:14:17;1.60;99.90
32097;DHT22;18610;49.916;8.284;2023-02-26T01:16:50;1.60;99.90
32097;DHT22;18610;49.916;8.284;2023-02-26T01:19:25;1.60;99.90
32097;DHT22;18610;49.916;8.284;2023-02-26T01:21:59;1.60;99.90
32097;DHT22;18610;49.916;8.284;2023-02-26T01:24:29;1.60;99.90
32097;DHT22;18610;49.916;8.284;2023-02-26T01:26:58;1.60;99.90
32097;DHT22;18610;49.916;8.284;2023-02-26T01:29:25;1.60;99.90
32097;DHT22;18610;49.916;8.284;2023-02-26T01:31:56;1.60;99.90
32097;DHT22;18610;49.916;8.284;2023-02-26T01:34:30;1.60;99.90
32097;DHT22;18610;49.916;8.284;2023-02-26T01:37:02;1.60;99.90
32097;DHT22;18610;49.916;8.284;2023-02-26T01:39:37;1.70;99.90
32097;DHT22;18610;49.916;8.284;2023-02-26T01:42:12;1.70;99.90
32097;DHT22;18610;49.916;8.284;2023-02-26T01:44:45;1.70;99.90
32097;DHT22;18610;49.916;8.284;2023-02-26T01:47:17;1.80;99.90
32097;DHT22;18610;49.916;8.284;2023-02-26T01:49:46;1.80;99.90
32097;DHT22;18610;49.916;8.284;2023-02-26T01:55:28;1.70;99.90
32097;DHT22;18610;49.916;8.284;2023-02-26T01:57:58;1.80;99.90
32097;DHT22;18610;49.916;8.284;2023-02-26T02:00:25;1.70;99.90
32097;DHT22;18610;49.916;8.284;2023-02-26T02:02:52;1.80;99.90
32097;DHT22;18610;49.916;8.284;2023-02-26T02:05:23;1.80;99.90
32097;DHT22;18610;49.916;8.284;2023-02-26T02:07:52;1.80;99.90
32097;DHT22;18610;49.916;8.284;2023-02-26T02:10:20;1.80;99.90
32097;DHT22;18610;49.916;8.284;2023-02-26T02:12:53;1.90;99.90
32097;DHT22;18610;49.916;8.284;2023-02-26T02:15:29;1.90;99.90
32097;DHT22;18610;49.916;8.284;2023-02-26T02:18:03;1.90;99.90
32097;DHT22;18610;49.916;8.284;2023-02-26T02:20:56;1.90;99.90
32097;DHT22;18610;49.916;8.284;2023-02-26T02:23:26;1.90;99.90
32097;DHT22;18610;49.916;8.284;2023-02-26T02:29:25;1.90;99.90
32097;DHT22;18610;49.916;8.284;2023-02-26T02:31:56;1.90;99.90
32097;DHT22;18610;49.916;8.284;2023-02-26T02:34:28;1.80;99.90
32097;DHT22;18610;49.916;8.284;2023-02-26T02:37:00;1.80;99.90
32097;DHT22;18610;49.916;8.284;2023-02-26T02:39:30;1.80;99.90
32097;DHT22;18610;49.916;8.284;2023-02-26T02:42:02;1.80;99.90
32097;DHT22;18610;49.916;8.284;2023-02-26T02:44:31;1.80;99.90
32097;DHT22;18610;49.916;8.284;2023-02-26T02:47:03;1.90;99.90
32097;DHT22;18610;49.916;8.284;2023-02-26T02:49:36;1.90;99.90
32097;DHT22;18610;49.916;8.284;2023-02-26T02:52:09;1.90;99.90
32097;DHT22;18610;49.916;8.284;2023-02-26T02:54:41;2.00;99.90
32097;DHT22;18610;49.916;8.284;2023-02-26T02:57:12;2.00;99.90
32097;DHT22;18610;49.916;8.284;2023-02-26T02:59:43;2.00;99.90
32097;DHT22;18610;49.916;8.284;2023-02-26T03:02:15;2.10;99.90
32097;DHT22;18610;49.916;8.284;2023-02-26T03:04:44;2.10;99.90
32097;DHT22;18610;49.916;8.284;2023-02-26T03:07:11;2.10;99.90
32097;DHT22;18610;49.916;8.284;2023-02-26T03:09:38;2.10;99.90
32097;DHT22;18610;49.916;8.284;2023-02-26T03:12:04;2.20;99.90
32097;DHT22;18610;49.916;8.284;2023-02-26T03:14:32;2.20;99.90
32097;DHT22;18610;49.916;8.284;2023-02-26T03:17:20;2.20;99.90
32097;DHT22;18610;49.916;8.284;2023-02-26T03:19:55;2.20;99.90
32097;DHT22;18610;49.916;8.284;2023-02-26T03:22:43;2.20;99.90
32097;DHT22;18610;49.916;8.284;2023-02-26T03:25:15;2.10;99.90
32097;DHT22;18610;49.916;8.284;2023-02-26T03:27:48;2.10;99.90
32097;DHT22;18610;49.916;8.284;2023-02-26T03:30:20;2.00;99.90
32097;DHT22;18610;49.916;8.284;2023-02-26T03:32:55;2.00;99.90
32097;DHT22;18610;49.916;8.284;2023-02-26T03:35:28;2.00;99.90
32097;DHT22;18610;49.916;8.284;2023-02-26T03:38:02;1.90;99.90
32097;DHT22;18610;49.916;8.284;2023-02-26T03:40:33;1.90;99.90
32097;DHT22;18610;49.916;8.284;2023-02-26T03:43:05;1.90;99.90
32097;DHT22;18610;49.916;8.284;2023-02-26T03:45:34;1.80;99.90
32097;DHT22;18610;49.916;8.284;2023-02-26T03:48:07;1.70;99.90
32097;DHT22;18610;49.916;8.284;2023-02-26T03:50:38;1.70;99.90
32097;DHT22;18610;49.916;8.284;2023-02-26T03:53:09;1.60;99.90
32097;DHT22;18610;49.916;8.284;2023-02-26T03:55:40;1.60;99.90
32097;DHT22;18610;49.916;8.284;2023-02-26T03:58:08;1.60;99.90
32097;DHT22;18610;49.916;8.284;2023-02-26T04:00:36;1.50;99.90
32097;DHT22;18610;49.916;8.284;2023-02-26T04:03:08;1.50;99.90
32097;DHT22;18610;49.916;8.284;2023-02-26T04:05:39;1.40;99.90
32097;DHT22;18610;49.916;8.284;2023-02-26T04:08:07;1.40;99.90
32097;DHT22;18610;49.916;8.284;2023-02-26T04:10:39;1.40;99.90
32097;DHT22;18610;49.916;8.284;2023-02-26T04:13:07;1.40;99.90
32097;DHT22;18610;49.916;8.284;2023-02-26T04:15:33;1.30;99.90
32097;DHT22;18610;49.916;8.284;2023-02-26T04:18:00;1.30;99.90
32097;DHT22;18610;49.916;8.284;2023-02-26T04:20:28;1.30;99.90
32097;DHT22;18610;49.916;8.284;2023-02-26T04:22:55;1.20;99.90
32097;DHT22;18610;49.916;8.284;2023-02-26T04:25:22;1.20;99.90
32097;DHT22;18610;49.916;8.284;2023-02-26T04:27:48;1.20;99.90
32097;DHT22;18610;49.916;8.284;2023-02-26T04:30:15;1.20;99.90
32097;DHT22;18610;49.916;8.284;2023-02-26T04:32:42;1.10;99.90
32097;DHT22;18610;49.916;8.284;2023-02-26T04:35:09;1.10;99.90
32097;DHT22;18610;49.916;8.284;2023-02-26T04:37:37;1.10;99.90
32097;DHT22;18610;49.916;8.284;2023-02-26T04:40:05;1.00;99.90
32097;DHT22;18610;49.916;8.284;2023-02-26T04:42:32;1.00;99.90
32097;DHT22;18610;49.916;8.284;2023-02-26T04:44:58;1.00;99.90
32097;DHT22;18610;49.916;8.284;2023-02-26T04:47:25;1.00;99.90
32097;DHT22;18610;49.916;8.284;2023-02-26T04:49:52;1.00;99.90
32097;DHT22;18610;49.916;8.284;2023-02-26T04:52:18;1.00;99.90
32097;DHT22;18610;49.916;8.284;2023-02-26T04:54:46;1.00;99.90
32097;DHT22;18610;49.916;8.284;2023-02-26T04:57:13;0.90;99.90
32097;DHT22;18610;49.916;8.284;2023-02-26T04:59:40;1.00;99.90
32097;DHT22;18610;49.916;8.284;2023-02-26T05:02:07;1.00;99.90
32097;DHT22;18610;49.916;8.284;2023-02-26T05:04:34;1.00;99.90
32097;DHT22;18610;49.916;8.284;2023-02-26T05:07:00;1.00;99.90
32097;DHT22;18610;49.916;8.284;2023-02-26T05:09:27;1.00;99.90
32097;DHT22;18610;49.916;8.284;2023-02-26T05:11:55;1.00;99.90
32097;DHT22;18610;49.916;8.284;2023-02-26T05:14:21;0.90;99.90
32097;DHT22;18610;49.916;8.284;2023-02-26T05:16:48;0.90;99.90
32097;DHT22;18610;49.916;8.284;2023-02-26T05:19:15;0.90;99.90
32097;DHT22;18610;49.916;8.284;2023-02-26T05:21:42;0.80;99.90
32097;DHT22;18610;49.916;8.284;2023-02-26T05:24:09;0.80;99.90
32097;DHT22;18610;49.916;8.284;2023-02-26T05:26:35;0.80;99.90
32097;DHT22;18610;49.916;8.284;2023-02-26T05:29:03;0.80;99.90
32097;DHT22;18610;49.916;8.284;2023-02-26T05:31:31;0.80;99.90
32097;DHT22;18610;49.916;8.284;2023-02-26T05:33:57;0.80;99.90
32097;DHT22;18610;49.916;8.284;2023-02-26T05:36:25;0.70;99.90
32097;DHT22;18610;49.916;8.284;2023-02-26T05:38:51;0.70;99.90
32097;DHT22;18610;49.916;8.284;2023-02-26T05:41:18;0.70;99.90
32097;DHT22;18610;49.916;8.284;2023-02-26T05:43:45;0.70;99.90
32097;DHT22;18610;49.916;8.284;2023-02-26T05:46:13;0.70;99.90
32097;DHT22;18610;49.916;8.284;2023-02-26T05:48:39;0.70;99.90
32097;DHT22;18610;49.916;8.284;2023-02-26T05:51:06;0.70;99.90
32097;DHT22;18610;49.916;8.284;2023-02-26T05:53:34;0.60;99.90
32097;DHT22;18610;49.916;8.284;2023-02-26T05:56:01;0.60;99.90
32097;DHT22;18610;49.916;8.284;2023-02-26T05:58:30;0.60;99.90
32097;DHT22;18610;49.916;8.284;2023-02-26T06:00:59;0.50;99.90
32097;DHT22;18610;49.916;8.284;2023-02-26T06:03:27;0.50;99.90
32097;DHT22;18610;49.916;8.284;2023-02-26T06:05:54;0.50;99.90
32097;DHT22;18610;49.916;8.284;2023-02-26T06:08:20;0.50;99.90
32097;DHT22;18610;49.916;8.284;2023-02-26T06:10:48;0.50;99.90
32097;DHT22;18610;49.916;8.284;2023-02-26T06:13:15;0.50;99.90
32097;DHT22;18610;49.916;8.284;2023-02-26T06:15:42;0.40;99.90
32097;DHT22;18610;49.916;8.284;2023-02-26T06:18:09;0.50;99.90
32097;DHT22;18610;49.916;8.284;2023-02-26T06:20:37;0.50;99.90
32097;DHT22;18610;49.916;8.284;2023-02-26T06:23:03;0.50;99.90
32097;DHT22;18610;49.916;8.284;2023-02-26T06:25:30;0.50;99.90
32097;DHT22;18610;49.916;8.284;2023-02-26T06:27:57;0.50;99.90
32097;DHT22;18610;49.916;8.284;2023-02-26T06:30:23;0.40;99.90
32097;DHT22;18610;49.916;8.284;2023-02-26T06:32:50;0.40;99.90
32097;DHT22;18610;49.916;8.284;2023-02-26T06:35:17;0.40;99.90
32097;DHT22;18610;49.916;8.284;2023-02-26T06:37:45;0.50;99.90
32097;DHT22;18610;49.916;8.284;2023-02-26T06:40:12;0.50;99.90
32097;DHT22;18610;49.916;8.284;2023-02-26T06:42:39;0.50;99.90
32097;DHT22;18610;49.916;8.284;2023-02-26T06:45:06;0.50;99.90
32097;DHT22;18610;49.916;8.284;2023-02-26T06:47:33;0.50;99.90
32097;DHT22;18610;49.916;8.284;2023-02-26T06:50:00;0.50;99.90
32097;DHT22;18610;49.916;8.284;2023-02-26T06:52:28;0.50;99.90
32097;DHT22;18610;49.916;8.284;2023-02-26T06:54:56;0.50;99.90
32097;DHT22;18610;49.916;8.284;2023-02-26T06:57:23;0.60;99.90
32097;DHT22;18610;49.916;8.284;2023-02-26T06:59:50;0.70;99.90
32097;DHT22;18610;49.916;8.284;2023-02-26T07:02:20;0.80;99.90
32097;DHT22;18610;49.916;8.284;2023-02-26T07:04:47;0.90;99.90
32097;DHT22;18610;49.916;8.284;2023-02-26T07:07:15;1.00;99.90
32097;DHT22;18610;49.916;8.284;2023-02-26T07:09:41;1.10;99.90
32097;DHT22;18610;49.916;8.284;2023-02-26T07:12:09;1.10;99.90
32097;DHT22;18610;49.916;8.284;2023-02-26T07:14:36;1.20;99.90
32097;DHT22;18610;49.916;8.284;2023-02-26T07:17:03;1.30;99.90
32097;DHT22;18610;49.916;8.284;2023-02-26T07:19:30;1.30;99.90
32097;DHT22;18610;49.916;8.284;2023-02-26T07:21:57;1.30;99.90
32097;DHT22;18610;49.916;8.284;2023-02-26T07:24:24;1.30;99.90
32097;DHT22;18610;49.916;8.284;2023-02-26T07:26:51;1.40;99.90
32097;DHT22;18610;49.916;8.284;2023-02-26T07:29:19;1.40;99.90
32097;DHT22;18610;49.916;8.284;2023-02-26T07:31:46;1.30;99.90
32097;DHT22;18610;49.916;8.284;2023-02-26T07:34:12;1.40;99.90
32097;DHT22;18610;49.916;8.284;2023-02-26T07:36:39;1.40;99.90
32097;DHT22;18610;49.916;8.284;2023-02-26T07:39:06;1.50;99.90
32097;DHT22;18610;49.916;8.284;2023-02-26T07:41:32;1.70;99.90
32097;DHT22;18610;49.916;8.284;2023-02-26T07:43:59;1.90;99.90
32097;DHT22;18610;49.916;8.284;2023-02-26T07:46:27;2.00;99.90
32097;DHT22;18610;49.916;8.284;2023-02-26T07:48:54;2.20;99.90
32097;DHT22;18610;49.916;8.284;2023-02-26T07:51:20;2.30;99.90
32097;DHT22;18610;49.916;8.284;2023-02-26T07:53:47;2.40;99.90
32097;DHT22;18610;49.916;8.284;2023-02-26T07:56:14;2.50;99.90
32097;DHT22;18610;49.916;8.284;2023-02-26T07:58:41;2.50;99.90
32097;DHT22;18610;49.916;8.284;2023-02-26T08:01:07;2.50;99.90
32097;DHT22;18610;49.916;8.284;2023-02-26T08:03:35;2.50;99.90
32097;DHT22;18610;49.916;8.284;2023-02-26T08:06:03;2.50;99.90
32097;DHT22;18610;49.916;8.284;2023-02-26T08:08:30;2.50;99.90
32097;DHT22;18610;49.916;8.284;2023-02-26T08:10:58;2.60;99.90
32097;DHT22;18610;49.916;8.284;2023-02-26T08:13:25;2.60;99.90
32097;DHT22;18610;49.916;8.284;2023-02-26T08:15:52;2.60;99.90
32097;DHT22;18610;49.916;8.284;2023-02-26T08:18:19;2.60;99.90
32097;DHT22;18610;49.916;8.284;2023-02-26T08:20:49;2.60;99.90
32097;DHT22;18610;49.916;8.284;2023-02-26T08:23:16;2.60;99.90
32097;DHT22;18610;49.916;8.284;2023-02-26T08:25:43;2.70;99.90
32097;DHT22;18610;49.916;8.284;2023-02-26T08:28:10;2.70;99.90
32097;DHT22;18610;49.916;8.284;2023-02-26T08:30:37;2.80;99.90
32097;DHT22;18610;49.916;8.284;2023-02-26T08:33:04;2.90;99.90
32097;DHT22;18610;49.916;8.284;2023-02-26T08:35:31;3.10;99.90
32097;DHT22;18610;49.916;8.284;2023-02-26T08:37:59;3.20;99.60
32097;DHT22;18610;49.916;8.284;2023-02-26T08:40:25;3.20;99.50
32097;DHT22;18610;49.916;8.284;2023-02-26T08:42:52;3.30;99.30
32097;DHT22;18610;49.916;8.284;2023-02-26T08:45:19;3.30;99.40
32097;DHT22;18610;49.916;8.284;2023-02-26T08:47:45;3.20;99.30
32097;DHT22;18610;49.916;8.284;2023-02-26T08:50:12;3.20;99.40
32097;DHT22;18610;49.916;8.284;2023-02-26T08:52:39;3.20;99.70
32097;DHT22;18610;49.916;8.284;2023-02-26T08:55:08;3.20;99.70
32097;DHT22;18610;49.916;8.284;2023-02-26T08:57:35;3.30;99.60
32097;DHT22;18610;49.916;8.284;2023-02-26T09:00:01;3.50;99.80
32097;DHT22;18610;49.916;8.284;2023-02-26T09:02:29;3.70;99.50
32097;DHT22;18610;49.916;8.284;2023-02-26T09:04:56;3.90;99.40
32097;DHT22;18610;49.916;8.284;2023-02-26T09:07:23;4.10;99.00
32097;DHT22;18610;49.916;8.284;2023-02-26T09:09:50;4.20;98.50
32097;DHT22;18610;49.916;8.284;2023-02-26T09:12:18;4.20;96.80
32097;DHT22;18610;49.916;8.284;2023-02-26T09:14:44;4.20;96.70
32097;DHT22;18610;49.916;8.284;2023-02-26T09:17:11;4.30;96.60
32097;DHT22;18610;49.916;8.284;2023-02-26T09:19:38;4.30;96.40
32097;DHT22;18610;49.916;8.284;2023-02-26T09:22:05;4.40;96.70
32097;DHT22;18610;49.916;8.284;2023-02-26T09:24:32;4.50;96.30
32097;DHT22;18610;49.916;8.284;2023-02-26T09:26:59;4.60;96.40
32097;DHT22;18610;49.916;8.284;2023-02-26T09:29:29;4.80;96.00
32097;DHT22;18610;49.916;8.284;2023-02-26T09:31:55;4.90;94.90
32097;DHT22;18610;49.916;8.284;2023-02-26T09:34:22;5.00;94.40
32097;DHT22;18610;49.916;8.284;2023-02-26T09:36:49;5.00;93.50
32097;DHT22;18610;49.916;8.284;2023-02-26T09:39:16;5.20;94.60
32097;DHT22;18610;49.916;8.284;2023-02-26T09:41:51;5.50;93.60
32097;DHT22;18610;49.916;8.284;2023-02-26T09:44:21;5.60;92.60
32097;DHT22;18610;49.916;8.284;2023-02-26T09:46:58;5.60;92.40
32097;DHT22;18610;49.916;8.284;2023-02-26T09:49:33;5.60;91.70
32097;DHT22;18610;49.916;8.284;2023-02-26T09:52:03;5.70;91.90
32097;DHT22;18610;49.916;8.284;2023-02-26T09:54:36;5.70;91.90
32097;DHT22;18610;49.916;8.284;2023-02-26T09:57:08;5.70;92.20
32097;DHT22;18610;49.916;8.284;2023-02-26T09:59:37;5.80;91.30
32097;DHT22;18610;49.916;8.284;2023-02-26T10:02:14;5.80;91.00
32097;DHT22;18610;49.916;8.284;2023-02-26T10:04:49;5.70;90.90
32097;DHT22;18610;49.916;8.284;2023-02-26T10:07:24;5.70;91.20
32097;DHT22;18610;49.916;8.284;2023-02-26T10:10:02;5.60;90.90
32097;DHT22;18610;49.916;8.284;2023-02-26T10:12:33;5.50;91.20
32097;DHT22;18610;49.916;8.284;2023-02-26T10:15:05;5.50;90.80
32097;DHT22;18610;49.916;8.284;2023-02-26T10:17:41;5.40;91.00
32097;DHT22;18610;49.916;8.284;2023-02-26T10:20:16;5.30;91.10
32097;DHT22;18610;49.916;8.284;2023-02-26T10:22:53;5.30;90.90
32097;DHT22;18610;49.916;8.284;2023-02-26T10:25:22;5.20;91.10
32097;DHT22;18610;49.916;8.284;2023-02-26T10:27:57;5.20;91.20
32097;DHT22;18610;49.916;8.284;2023-02-26T10:30:31;5.30;91.70
32097;DHT22;18610;49.916;8.284;2023-02-26T10:33:06;5.30;91.50
32097;DHT22;18610;49.916;8.284;2023-02-26T10:35:40;5.20;91.20
32097;DHT22;18610;49.916;8.284;2023-02-26T10:38:11;5.30;91.40
32097;DHT22;18610;49.916;8.284;2023-02-26T10:40:43;5.40;91.80
32097;DHT22;18610;49.916;8.284;2023-02-26T10:43:14;5.50;91.20
32097;DHT22;18610;49.916;8.284;2023-02-26T10:45:48;5.50;90.80
32097;DHT22;18610;49.916;8.284;2023-02-26T10:48:27;5.40;90.60
32097;DHT22;18610;49.916;8.284;2023-02-26T10:50:59;5.30;91.00
32097;DHT22;18610;49.916;8.284;2023-02-26T10:53:27;5.30;90.70
32097;DHT22;18610;49.916;8.284;2023-02-26T10:56:02;5.20;90.70
32097;DHT22;18610;49.916;8.284;2023-02-26T10:58:29;5.20;91.40
32097;DHT22;18610;49.916;8.284;2023-02-26T11:00:56;5.20;91.30
32097;DHT22;18610;49.916;8.284;2023-02-26T11:03:31;5.20;91.30
32097;DHT22;18610;49.916;8.284;2023-02-26T11:05:58;5.20;91.60
32097;DHT22;18610;49.916;8.284;2023-02-26T11:08:31;5.20;91.20
32097;DHT22;18610;49.916;8.284;2023-02-26T11:11:00;5.20;90.60
32097;DHT22;18610;49.916;8.284;2023-02-26T11:13:29;5.20;90.50
32097;DHT22;18610;49.916;8.284;2023-02-26T11:16:01;5.10;90.30
32097;DHT22;18610;49.916;8.284;2023-02-26T11:18:30;5.20;90.10
32097;DHT22;18610;49.916;8.284;2023-02-26T11:20:59;5.20;89.80
32097;DHT22;18610;49.916;8.284;2023-02-26T11:23:28;5.20;90.30
32097;DHT22;18610;49.916;8.284;2023-02-26T11:25:59;5.20;90.00
32097;DHT22;18610;49.916;8.284;2023-02-26T11:28:31;5.20;90.50
32097;DHT22;18610;49.916;8.284;2023-02-26T11:31:01;5.20;90.60
32097;DHT22;18610;49.916;8.284;2023-02-26T11:33:36;5.30;90.40
32097;DHT22;18610;49.916;8.284;2023-02-26T11:36:08;5.30;90.20
32097;DHT22;18610;49.916;8.284;2023-02-26T11:38:36;5.20;90.80
32097;DHT22;18610;49.916;8.284;2023-02-26T11:41:04;5.20;90.70
32097;DHT22;18610;49.916;8.284;2023-02-26T11:43:35;5.20;90.90
32097;DHT22;18610;49.916;8.284;2023-02-26T11:46:03;5.20;90.70
32097;DHT22;18610;49.916;8.284;2023-02-26T11:48:38;5.20;90.50
32097;DHT22;18610;49.916;8.284;2023-02-26T11:51:06;5.20;90.40
32097;DHT22;18610;49.916;8.284;2023-02-26T11:53:36;5.20;90.60
32097;DHT22;18610;49.916;8.284;2023-02-26T11:56:10;5.20;90.70
32097;DHT22;18610;49.916;8.284;2023-02-26T11:58:39;5.20;90.10
32097;DHT22;18610;49.916;8.284;2023-02-26T12:01:08;5.20;90.10
32097;DHT22;18610;49.916;8.284;2023-02-26T12:03:39;5.20;90.20
32097;DHT22;18610;49.916;8.284;2023-02-26T12:06:07;5.10;90.30
32097;DHT22;18610;49.916;8.284;2023-02-26T12:08:40;5.10;90.20
32097;DHT22;18610;49.916;8.284;2023-02-26T12:14:16;5.00;90.90
32097;DHT22;18610;49.916;8.284;2023-02-26T12:16:54;5.10;91.30
32097;DHT22;18610;49.916;8.284;2023-02-26T12:19:35;5.10;91.00
32097;DHT22;18610;49.916;8.284;2023-02-26T12:22:18;5.20;91.20
32097;DHT22;18610;49.916;8.284;2023-02-26T12:25:01;5.20;91.00
32097;DHT22;18610;49.916;8.284;2023-02-26T12:27:45;5.20;91.10
32097;DHT22;18610;49.916;8.284;2023-02-26T12:30:32;5.30;91.50
32097;DHT22;18610;49.916;8.284;2023-02-26T12:33:09;5.70;91.40
32097;DHT22;18610;49.916;8.284;2023-02-26T12:35:57;6.00;90.70
32097;DHT22;18610;49.916;8.284;2023-02-26T12:38:29;6.30;88.10
32097;DHT22;18610;49.916;8.284;2023-02-26T12:41:31;6.40;88.70
32097;DHT22;18610;49.916;8.284;2023-02-26T12:44:13;6.60;88.40
32097;DHT22;18610;49.916;8.284;2023-02-26T12:46:56;6.80;87.00
32097;DHT22;18610;49.916;8.284;2023-02-26T12:49:45;7.00;86.30
32097;DHT22;18610;49.916;8.284;2023-02-26T12:52:39;7.10;84.80
32097;DHT22;18610;49.916;8.284;2023-02-26T12:55:17;7.10;83.80
32097;DHT22;18610;49.916;8.284;2023-02-26T13:01:07;7.20;82.60
32097;DHT22;18610;49.916;8.284;2023-02-26T13:04:08;7.10;83.60
32097;DHT22;18610;49.916;8.284;2023-02-26T13:09:48;6.80;83.80
32097;DHT22;18610;49.916;8.284;2023-02-26T13:12:28;6.70;83.20
32097;DHT22;18610;49.916;8.284;2023-02-26T13:15:06;6.60;84.10
32097;DHT22;18610;49.916;8.284;2023-02-26T13:17:39;6.50;84.20
32097;DHT22;18610;49.916;8.284;2023-02-26T13:20:12;6.40;85.10
32097;DHT22;18610;49.916;8.284;2023-02-26T13:22:47;6.40;85.90
32097;DHT22;18610;49.916;8.284;2023-02-26T13:25:21;6.30;85.40
32097;DHT22;18610;49.916;8.284;2023-02-26T13:27:50;6.20;84.90
32097;DHT22;18610;49.916;8.284;2023-02-26T13:30:22;6.10;85.50
32097;DHT22;18610;49.916;8.284;2023-02-26T13:32:55;6.00;86.40
32097;DHT22;18610;49.916;8.284;2023-02-26T13:35:26;6.00;85.70
32097;DHT22;18610;49.916;8.284;2023-02-26T13:37:56;5.90;84.80
32097;DHT22;18610;49.916;8.284;2023-02-26T13:40:42;5.80;84.60
32097;DHT22;18610;49.916;8.284;2023-02-26T13:43:20;5.80;85.10
32097;DHT22;18610;49.916;8.284;2023-02-26T13:45:57;5.80;85.70
32097;DHT22;18610;49.916;8.284;2023-02-26T13:48:36;5.90;85.90
32097;DHT22;18610;49.916;8.284;2023-02-26T13:51:08;5.80;83.60
32097;DHT22;18610;49.916;8.284;2023-02-26T13:53:50;5.70;84.80
32097;DHT22;18610;49.916;8.284;2023-02-26T13:56:41;5.70;85.70
32097;DHT22;18610;49.916;8.284;2023-02-26T13:59:28;5.70;83.40
32097;DHT22;18610;49.916;8.284;2023-02-26T14:01:57;5.60;81.80
32097;DHT22;18610;49.916;8.284;2023-02-26T14:04:28;5.50;81.70
32097;DHT22;18610;49.916;8.284;2023-02-26T14:06:56;5.60;83.60
32097;DHT22;18610;49.916;8.284;2023-02-26T14:09:43;5.50;82.60
32097;DHT22;18610;49.916;8.284;2023-02-26T14:12:32;5.40;80.00
32097;DHT22;18610;49.916;8.284;2023-02-26T14:15:27;5.40;80.00
32097;DHT22;18610;49.916;8.284;2023-02-26T14:18:02;5.40;80.40
32097;DHT22;18610;49.916;8.284;2023-02-26T14:20:31;5.30;80.70
32097;DHT22;18610;49.916;8.284;2023-02-26T14:26:12;5.30;82.10
32097;DHT22;18610;49.916;8.284;2023-02-26T14:28:52;5.30;82.60
32097;DHT22;18610;49.916;8.284;2023-02-26T14:31:22;5.30;83.20
32097;DHT22;18610;49.916;8.284;2023-02-26T14:34:11;5.20;84.30
32097;DHT22;18610;49.916;8.284;2023-02-26T14:36:43;5.20;84.70
32097;DHT22;18610;49.916;8.284;2023-02-26T14:39:21;5.20;86.40
32097;DHT22;18610;49.916;8.284;2023-02-26T14:41:48;5.20;88.00
32097;DHT22;18610;49.916;8.284;2023-02-26T14:44:20;5.20;89.00
32097;DHT22;18610;49.916;8.284;2023-02-26T14:46:49;5.20;89.00
32097;DHT22;18610;49.916;8.284;2023-02-26T14:49:19;5.30;89.40
32097;DHT22;18610;49.916;8.284;2023-02-26T14:52:01;5.50;89.50
32097;DHT22;18610;49.916;8.284;2023-02-26T14:54:53;5.60;90.00
32097;DHT22;18610;49.916;8.284;2023-02-26T14:57:29;5.70;88.50
32097;DHT22;18610;49.916;8.284;2023-02-26T15:00:10;5.70;87.40
32097;DHT22;18610;49.916;8.284;2023-02-26T15:02:55;5.70;86.70
32097;DHT22;18610;49.916;8.284;2023-02-26T15:05:42;5.70;87.40
32097;DHT22;18610;49.916;8.284;2023-02-26T15:08:24;5.70;88.60
32097;DHT22;18610;49.916;8.284;2023-02-26T15:11:07;5.70;88.40
32097;DHT22;18610;49.916;8.284;2023-02-26T15:13:53;5.70;89.10
32097;DHT22;18610;49.916;8.284;2023-02-26T15:16:35;5.80;88.70
32097;DHT22;18610;49.916;8.284;2023-02-26T15:19:23;5.80;87.50
32097;DHT22;18610;49.916;8.284;2023-02-26T15:22:02;5.70;84.50
32097;DHT22;18610;49.916;8.284;2023-02-26T15:24:30;5.60;85.00
32097;DHT22;18610;49.916;8.284;2023-02-26T15:27:00;5.50;85.10
32097;DHT22;18610;49.916;8.284;2023-02-26T15:29:30;5.90;86.60
32097;DHT22;18610;49.916;8.284;2023-02-26T15:32:00;6.10;84.60
32097;DHT22;18610;49.916;8.284;2023-02-26T15:34:30;6.10;83.40
32097;DHT22;18610;49.916;8.284;2023-02-26T15:36:58;6.00;82.30
32097;DHT22;18610;49.916;8.284;2023-02-26T15:39:25;5.90;82.70
32097;DHT22;18610;49.916;8.284;2023-02-26T15:41:54;5.70;81.70
32097;DHT22;18610;49.916;8.284;2023-02-26T15:44:24;5.50;82.10
32097;DHT22;18610;49.916;8.284;2023-02-26T15:46:55;5.40;80.50
32097;DHT22;18610;49.916;8.284;2023-02-26T15:49:27;5.30;80.40
32097;DHT22;18610;49.916;8.284;2023-02-26T15:51:54;5.20;80.50
32097;DHT22;18610;49.916;8.284;2023-02-26T15:54:24;5.30;81.20
32097;DHT22;18610;49.916;8.284;2023-02-26T15:56:53;5.40;81.50
32097;DHT22;18610;49.916;8.284;2023-02-26T15:59:22;5.50;80.10
32097;DHT22;18610;49.916;8.284;2023-02-26T16:01:51;6.20;80.30
32097;DHT22;18610;49.916;8.284;2023-02-26T16:04:19;6.90;78.90
32097;DHT22;18610;49.916;8.284;2023-02-26T16:06:51;7.00;76.30
32097;DHT22;18610;49.916;8.284;2023-02-26T16:09:23;6.90;75.80
32097;DHT22;18610;49.916;8.284;2023-02-26T16:11:53;6.50;75.50
32097;DHT22;18610;49.916;8.284;2023-02-26T16:14:23;6.20;76.70
32097;DHT22;18610;49.916;8.284;2023-02-26T16:16:53;6.00;76.70
32097;DHT22;18610;49.916;8.284;2023-02-26T16:19:30;5.70;76.70
32097;DHT22;18610;49.916;8.284;2023-02-26T16:22:01;5.50;77.90
32097;DHT22;18610;49.916;8.284;2023-02-26T16:24:29;5.30;78.70
32097;DHT22;18610;49.916;8.284;2023-02-26T16:27:00;5.10;79.20
32097;DHT22;18610;49.916;8.284;2023-02-26T16:29:30;5.00;79.00